sensor_id;sensor_type;location;lat;lon;timestamp;temperature;humidity
16154;DHT22;8182;55.648;13.208;2024-03-07T00:02:09;1.60;1.00
16154;DHT22;8182;55.648;13.208;2024-03-07T00:04:37;1.40;1.00
16154;DHT22;8182;55.648;13.208;2024-03-07T00:07:04;1.50;1.00
16154;DHT22;8182;55.648;13.208;2024-03-07T00:09:33;1.40;1.00
16154;DHT22;8182;55.648;13.208;2024-03-07T00:12:00;1.50;1.00
16154;DHT22;8182;55.648;13.208;2024-03-07T00:14:27;1.50;1.00
16154;DHT22;8182;55.648;13.208;2024-03-07T00:16:54;1.40;1.00
16154;DHT22;8182;55.648;13.208;2024-03-07T00:19:21;1.30;1.00
16154;DHT22;8182;55.648;13.208;2024-03-07T00:21:52;1.20;1.00
16154;DHT22;8182;55.648;13.208;2024-03-07T00:24:20;1.20;1.00
16154;DHT22;8182;55.648;13.208;2024-03-07T00:26:47;1.10;1.00
16154;DHT22;8182;55.648;13.208;2024-03-07T00:29:15;1.10;1.00
16154;DHT22;8182;55.648;13.208;2024-03-07T00:31:43;1.20;1.00
16154;DHT22;8182;55.648;13.208;2024-03-07T00:34:12;1.20;1.00
16154;DHT22;8182;55.648;13.208;2024-03-07T00:36:39;1.20;1.00
16154;DHT22;8182;55.648;13.208;2024-03-07T00:39:07;1.20;1.00
16154;DHT22;8182;55.648;13.208;2024-03-07T00:41:37;1.20;1.00
16154;DHT22;8182;55.648;13.208;2024-03-07T00:44:04;1.10;1.00
16154;DHT22;8182;55.648;13.208;2024-03-07T00:46:31;0.90;1.00
16154;DHT22;8182;55.648;13.208;2024-03-07T00:48:58;1.00;1.00
16154;DHT22;8182;55.648;13.208;2024-03-07T00:51:25;0.90;1.00
16154;DHT22;8182;55.648;13.208;2024-03-07T00:53:52;0.80;1.00
16154;DHT22;8182;55.648;13.208;2024-03-07T00:56:21;0.80;1.00
16154;DHT22;8182;55.648;13.208;2024-03-07T00:58:48;0.80;1.00
16154;DHT22;8182;55.648;13.208;2024-03-07T01:01:13;0.80;1.00
16154;DHT22;8182;55.648;13.208;2024-03-07T01:03:40;0.70;1.00
16154;DHT22;8182;55.648;13.208;2024-03-07T01:06:07;0.70;1.00
16154;DHT22;8182;55.648;13.208;2024-03-07T01:08:35;0.60;1.00
16154;DHT22;8182;55.648;13.208;2024-03-07T01:11:02;0.70;1.00
16154;DHT22;8182;55.648;13.208;2024-03-07T01:13:36;0.70;1.00
16154;DHT22;8182;55.648;13.208;2024-03-07T01:16:03;0.60;1.00
16154;DHT22;8182;55.648;13.208;2024-03-07T01:18:30;0.70;1.00
16154;DHT22;8182;55.648;13.208;2024-03-07T01:20:58;0.70;1.00
16154;DHT22;8182;55.648;13.208;2024-03-07T01:23:25;0.60;1.00
16154;DHT22;8182;55.648;13.208;2024-03-07T01:25:54;0.60;1.00
16154;DHT22;8182;55.648;13.208;2024-03-07T01:28:22;0.60;1.00
16154;DHT22;8182;55.648;13.208;2024-03-07T01:30:50;0.40;1.00
16154;DHT22;8182;55.648;13.208;2024-03-07T01:33:18;0.40;1.00
16154;DHT22;8182;55.648;13.208;2024-03-07T01:35:45;0.40;1.00
16154;DHT22;8182;55.648;13.208;2024-03-07T01:38:12;0.40;1.00
16154;DHT22;8182;55.648;13.208;2024-03-07T01:40:40;0.40;1.00
16154;DHT22;8182;55.648;13.208;2024-03-07T01:43:07;0.40;1.00
16154;DHT22;8182;55.648;13.208;2024-03-07T01:45:34;0.40;1.00
16154;DHT22;8182;55.648;13.208;2024-03-07T01:48:05;0.50;1.00
16154;DHT22;8182;55.648;13.208;2024-03-07T01:50:32;0.50;1.00
16154;DHT22;8182;55.648;13.208;2024-03-07T01:52:59;0.50;1.00
16154;DHT22;8182;55.648;13.208;2024-03-07T01:55:27;0.40;1.00
16154;DHT22;8182;55.648;13.208;2024-03-07T01:57:56;0.60;1.00
16154;DHT22;8182;55.648;13.208;2024-03-07T02:00:25;0.40;1.00
16154;DHT22;8182;55.648;13.208;2024-03-07T02:02:53;0.40;1.00
16154;DHT22;8182;55.648;13.208;2024-03-07T02:05:22;0.30;1.00
16154;DHT22;8182;55.648;13.208;2024-03-07T02:07:49;0.30;1.00
16154;DHT22;8182;55.648;13.208;2024-03-07T02:10:16;0.30;1.00
16154;DHT22;8182;55.648;13.208;2024-03-07T02:12:47;0.10;1.00
16154;DHT22;8182;55.648;13.208;2024-03-07T02:15:17;0.10;1.00
16154;DHT22;8182;55.648;13.208;2024-03-07T02:17:44;-0.10;1.00
16154;DHT22;8182;55.648;13.208;2024-03-07T02:20:11;-0.20;1.00
16154;DHT22;8182;55.648;13.208;2024-03-07T02:22:40;-0.10;1.00
16154;DHT22;8182;55.648;13.208;2024-03-07T02:25:07;-0.10;1.00
16154;DHT22;8182;55.648;13.208;2024-03-07T02:27:36;-0.10;1.00
16154;DHT22;8182;55.648;13.208;2024-03-07T02:30:04;0.00;1.00
16154;DHT22;8182;55.648;13.208;2024-03-07T02:32:33;0.00;1.00
16154;DHT22;8182;55.648;13.208;2024-03-07T02:35:02;0.10;1.00
16154;DHT22;8182;55.648;13.208;2024-03-07T02:37:30;0.20;1.00
16154;DHT22;8182;55.648;13.208;2024-03-07T02:39:58;0.30;1.00
16154;DHT22;8182;55.648;13.208;2024-03-07T02:42:25;0.20;1.00
16154;DHT22;8182;55.648;13.208;2024-03-07T02:44:52;0.10;1.00
16154;DHT22;8182;55.648;13.208;2024-03-07T02:47:19;0.10;1.00
16154;DHT22;8182;55.648;13.208;2024-03-07T02:49:46;0.10;1.00
16154;DHT22;8182;55.648;13.208;2024-03-07T02:52:13;0.20;1.00
16154;DHT22;8182;55.648;13.208;2024-03-07T02:54:41;0.10;1.00
16154;DHT22;8182;55.648;13.208;2024-03-07T02:57:10;-0.10;1.00
16154;DHT22;8182;55.648;13.208;2024-03-07T02:59:37;-0.20;1.00
16154;DHT22;8182;55.648;13.208;2024-03-07T03:02:04;-0.20;1.00
16154;DHT22;8182;55.648;13.208;2024-03-07T03:04:31;-0.10;1.00
16154;DHT22;8182;55.648;13.208;2024-03-07T03:06:58;-0.10;1.00
16154;DHT22;8182;55.648;13.208;2024-03-07T03:09:25;0.00;1.00
16154;DHT22;8182;55.648;13.208;2024-03-07T03:11:54;0.10;1.00
16154;DHT22;8182;55.648;13.208;2024-03-07T03:14:22;0.00;1.00
16154;DHT22;8182;55.648;13.208;2024-03-07T03:16:49;-0.10;1.00
16154;DHT22;8182;55.648;13.208;2024-03-07T03:19:16;-0.10;1.00
16154;DHT22;8182;55.648;13.208;2024-03-07T03:21:42;0.10;1.00
16154;DHT22;8182;55.648;13.208;2024-03-07T03:24:09;0.20;1.00
16154;DHT22;8182;55.648;13.208;2024-03-07T03:26:36;0.10;1.00
16154;DHT22;8182;55.648;13.208;2024-03-07T03:29:03;0.10;1.00
16154;DHT22;8182;55.648;13.208;2024-03-07T03:31:33;0.00;1.00
16154;DHT22;8182;55.648;13.208;2024-03-07T03:34:00;0.00;1.00
16154;DHT22;8182;55.648;13.208;2024-03-07T03:36:27;0.00;1.00
16154;DHT22;8182;55.648;13.208;2024-03-07T03:38:55;0.00;1.00
16154;DHT22;8182;55.648;13.208;2024-03-07T03:41:22;0.00;1.00
16154;DHT22;8182;55.648;13.208;2024-03-07T03:43:49;0.00;1.00
16154;DHT22;8182;55.648;13.208;2024-03-07T03:46:16;0.20;1.00
16154;DHT22;8182;55.648;13.208;2024-03-07T03:48:45;0.20;1.00
16154;DHT22;8182;55.648;13.208;2024-03-07T03:51:12;0.20;1.00
16154;DHT22;8182;55.648;13.208;2024-03-07T03:53:41;0.30;1.00
16154;DHT22;8182;55.648;13.208;2024-03-07T03:56:10;0.30;1.00
16154;DHT22;8182;55.648;13.208;2024-03-07T03:58:37;0.20;1.00
16154;DHT22;8182;55.648;13.208;2024-03-07T04:01:06;0.20;1.00
16154;DHT22;8182;55.648;13.208;2024-03-07T04:03:38;0.20;1.00
16154;DHT22;8182;55.648;13.208;2024-03-07T04:06:06;0.30;1.00
16154;DHT22;8182;55.648;13.208;2024-03-07T04:08:33;0.20;1.00
16154;DHT22;8182;55.648;13.208;2024-03-07T04:11:02;0.40;1.00
16154;DHT22;8182;55.648;13.208;2024-03-07T04:13:30;0.10;1.00
16154;DHT22;8182;55.648;13.208;2024-03-07T04:15:57;0.10;1.00
16154;DHT22;8182;55.648;13.208;2024-03-07T04:18:24;0.00;1.00
16154;DHT22;8182;55.648;13.208;2024-03-07T04:20:52;0.30;1.00
16154;DHT22;8182;55.648;13.208;2024-03-07T04:23:21;0.30;1.00
16154;DHT22;8182;55.648;13.208;2024-03-07T04:25:48;0.40;1.00
16154;DHT22;8182;55.648;13.208;2024-03-07T04:28:16;0.30;1.00
16154;DHT22;8182;55.648;13.208;2024-03-07T04:30:43;0.40;1.00
16154;DHT22;8182;55.648;13.208;2024-03-07T04:33:11;0.30;1.00
16154;DHT22;8182;55.648;13.208;2024-03-07T04:35:37;0.20;1.00
16154;DHT22;8182;55.648;13.208;2024-03-07T04:38:04;0.20;1.00
16154;DHT22;8182;55.648;13.208;2024-03-07T04:40:36;0.10;1.00
16154;DHT22;8182;55.648;13.208;2024-03-07T04:43:04;0.10;1.00
16154;DHT22;8182;55.648;13.208;2024-03-07T04:45:31;0.10;1.00
16154;DHT22;8182;55.648;13.208;2024-03-07T04:47:58;0.20;1.00
16154;DHT22;8182;55.648;13.208;2024-03-07T04:50:24;0.20;1.00
16154;DHT22;8182;55.648;13.208;2024-03-07T04:52:52;0.10;1.00
16154;DHT22;8182;55.648;13.208;2024-03-07T04:55:19;0.20;1.00
16154;DHT22;8182;55.648;13.208;2024-03-07T04:57:47;0.30;1.00
16154;DHT22;8182;55.648;13.208;2024-03-07T05:00:15;0.20;1.00
16154;DHT22;8182;55.648;13.208;2024-03-07T05:02:46;0.00;1.00
16154;DHT22;8182;55.648;13.208;2024-03-07T05:05:13;0.00;1.00
16154;DHT22;8182;55.648;13.208;2024-03-07T05:07:40;-0.20;1.00
16154;DHT22;8182;55.648;13.208;2024-03-07T05:10:07;-0.10;1.00
16154;DHT22;8182;55.648;13.208;2024-03-07T05:12:34;-0.10;1.00
16154;DHT22;8182;55.648;13.208;2024-03-07T05:15:04;0.00;1.00
16154;DHT22;8182;55.648;13.208;2024-03-07T05:17:31;0.00;1.00
16154;DHT22;8182;55.648;13.208;2024-03-07T05:20:00;0.00;1.00
16154;DHT22;8182;55.648;13.208;2024-03-07T05:22:27;-0.20;1.00
16154;DHT22;8182;55.648;13.208;2024-03-07T05:24:56;-0.20;1.00
16154;DHT22;8182;55.648;13.208;2024-03-07T05:27:24;-0.20;1.00
16154;DHT22;8182;55.648;13.208;2024-03-07T05:29:51;0.00;1.00
16154;DHT22;8182;55.648;13.208;2024-03-07T05:32:23;0.00;1.00
16154;DHT22;8182;55.648;13.208;2024-03-07T05:34:52;0.10;1.00
16154;DHT22;8182;55.648;13.208;2024-03-07T05:37:22;0.30;1.00
16154;DHT22;8182;55.648;13.208;2024-03-07T05:39:49;0.20;1.00
16154;DHT22;8182;55.648;13.208;2024-03-07T05:42:17;0.20;1.00
16154;DHT22;8182;55.648;13.208;2024-03-07T05:44:44;0.20;1.00
16154;DHT22;8182;55.648;13.208;2024-03-07T05:47:11;0.20;1.00
16154;DHT22;8182;55.648;13.208;2024-03-07T05:49:41;0.20;1.00
16154;DHT22;8182;55.648;13.208;2024-03-07T05:52:08;0.20;1.00
16154;DHT22;8182;55.648;13.208;2024-03-07T05:54:35;0.20;1.00
16154;DHT22;8182;55.648;13.208;2024-03-07T05:57:02;0.30;1.00
16154;DHT22;8182;55.648;13.208;2024-03-07T05:59:31;0.30;1.00
16154;DHT22;8182;55.648;13.208;2024-03-07T06:01:58;0.30;1.00
16154;DHT22;8182;55.648;13.208;2024-03-07T06:04:25;0.30;1.00
16154;DHT22;8182;55.648;13.208;2024-03-07T06:06:53;0.30;1.00
16154;DHT22;8182;55.648;13.208;2024-03-07T06:09:20;0.30;1.00
16154;DHT22;8182;55.648;13.208;2024-03-07T06:11:48;0.40;1.00
16154;DHT22;8182;55.648;13.208;2024-03-07T06:14:15;0.40;1.00
16154;DHT22;8182;55.648;13.208;2024-03-07T06:16:43;0.30;1.00
16154;DHT22;8182;55.648;13.208;2024-03-07T06:19:10;0.40;1.00
16154;DHT22;8182;55.648;13.208;2024-03-07T06:21:38;0.50;1.00
16154;DHT22;8182;55.648;13.208;2024-03-07T06:24:08;0.50;1.00
16154;DHT22;8182;55.648;13.208;2024-03-07T06:26:38;0.60;1.00
16154;DHT22;8182;55.648;13.208;2024-03-07T06:29:13;0.60;1.00
16154;DHT22;8182;55.648;13.208;2024-03-07T06:31:40;0.70;1.00
16154;DHT22;8182;55.648;13.208;2024-03-07T06:34:07;0.70;1.00
16154;DHT22;8182;55.648;13.208;2024-03-07T06:36:34;0.70;1.00
16154;DHT22;8182;55.648;13.208;2024-03-07T06:39:01;0.80;1.00
16154;DHT22;8182;55.648;13.208;2024-03-07T06:41:32;0.90;1.00
16154;DHT22;8182;55.648;13.208;2024-03-07T06:43:59;0.90;1.00
16154;DHT22;8182;55.648;13.208;2024-03-07T06:46:26;0.90;1.00
16154;DHT22;8182;55.648;13.208;2024-03-07T06:48:53;0.90;1.00
16154;DHT22;8182;55.648;13.208;2024-03-07T06:51:21;1.00;1.00
16154;DHT22;8182;55.648;13.208;2024-03-07T06:53:48;1.00;1.00
16154;DHT22;8182;55.648;13.208;2024-03-07T06:56:16;1.00;1.00
16154;DHT22;8182;55.648;13.208;2024-03-07T06:58:45;1.00;1.00
16154;DHT22;8182;55.648;13.208;2024-03-07T07:01:14;1.00;1.00
16154;DHT22;8182;55.648;13.208;2024-03-07T07:03:42;1.00;1.00
16154;DHT22;8182;55.648;13.208;2024-03-07T07:06:10;1.00;1.00
16154;DHT22;8182;55.648;13.208;2024-03-07T07:08:37;1.10;1.00
16154;DHT22;8182;55.648;13.208;2024-03-07T07:11:04;1.10;1.00
16154;DHT22;8182;55.648;13.208;2024-03-07T07:13:31;1.20;1.00
16154;DHT22;8182;55.648;13.208;2024-03-07T07:15:59;1.10;1.00
16154;DHT22;8182;55.648;13.208;2024-03-07T07:18:26;1.10;1.00
16154;DHT22;8182;55.648;13.208;2024-03-07T07:20:53;1.10;1.00
16154;DHT22;8182;55.648;13.208;2024-03-07T07:23:21;1.20;1.00
16154;DHT22;8182;55.648;13.208;2024-03-07T07:25:48;1.20;1.00
16154;DHT22;8182;55.648;13.208;2024-03-07T07:28:15;1.20;1.00
16154;DHT22;8182;55.648;13.208;2024-03-07T07:30:42;1.30;1.00
16154;DHT22;8182;55.648;13.208;2024-03-07T07:33:13;1.30;1.00
16154;DHT22;8182;55.648;13.208;2024-03-07T07:35:43;1.30;1.00
16154;DHT22;8182;55.648;13.208;2024-03-07T07:38:11;1.30;1.00
16154;DHT22;8182;55.648;13.208;2024-03-07T07:40:40;1.40;1.00
16154;DHT22;8182;55.648;13.208;2024-03-07T07:43:07;1.50;1.00
16154;DHT22;8182;55.648;13.208;2024-03-07T07:45:34;1.60;1.00
16154;DHT22;8182;55.648;13.208;2024-03-07T07:48:02;1.50;1.00
16154;DHT22;8182;55.648;13.208;2024-03-07T07:50:30;1.30;1.00
16154;DHT22;8182;55.648;13.208;2024-03-07T07:53:00;1.50;1.00
16154;DHT22;8182;55.648;13.208;2024-03-07T07:55:27;1.40;1.00
16154;DHT22;8182;55.648;13.208;2024-03-07T07:57:55;1.60;1.00
16154;DHT22;8182;55.648;13.208;2024-03-07T08:00:24;1.60;1.00
16154;DHT22;8182;55.648;13.208;2024-03-07T08:02:52;1.80;1.00
16154;DHT22;8182;55.648;13.208;2024-03-07T08:05:20;1.90;1.00
16154;DHT22;8182;55.648;13.208;2024-03-07T08:07:50;1.80;1.00
16154;DHT22;8182;55.648;13.208;2024-03-07T08:10:17;1.70;1.00
16154;DHT22;8182;55.648;13.208;2024-03-07T08:12:45;1.80;1.00
16154;DHT22;8182;55.648;13.208;2024-03-07T08:15:13;1.90;1.00
16154;DHT22;8182;55.648;13.208;2024-03-07T08:17:41;2.50;1.00
16154;DHT22;8182;55.648;13.208;2024-03-07T08:20:11;2.30;1.00
16154;DHT22;8182;55.648;13.208;2024-03-07T08:22:38;2.30;1.00
16154;DHT22;8182;55.648;13.208;2024-03-07T08:25:08;2.20;1.00
16154;DHT22;8182;55.648;13.208;2024-03-07T08:27:36;2.10;1.00
16154;DHT22;8182;55.648;13.208;2024-03-07T08:30:05;2.10;1.00
16154;DHT22;8182;55.648;13.208;2024-03-07T08:32:33;2.20;1.00
16154;DHT22;8182;55.648;13.208;2024-03-07T08:35:03;2.30;1.00
16154;DHT22;8182;55.648;13.208;2024-03-07T08:37:33;2.60;1.00
16154;DHT22;8182;55.648;13.208;2024-03-07T08:40:00;2.60;1.00
16154;DHT22;8182;55.648;13.208;2024-03-07T08:42:31;2.70;1.00
16154;DHT22;8182;55.648;13.208;2024-03-07T08:44:59;2.70;1.00
16154;DHT22;8182;55.648;13.208;2024-03-07T08:47:26;2.60;1.00
16154;DHT22;8182;55.648;13.208;2024-03-07T08:49:54;2.70;1.00
16154;DHT22;8182;55.648;13.208;2024-03-07T08:52:21;2.70;1.00
16154;DHT22;8182;55.648;13.208;2024-03-07T08:54:47;2.70;1.00
16154;DHT22;8182;55.648;13.208;2024-03-07T08:57:15;3.10;1.00
16154;DHT22;8182;55.648;13.208;2024-03-07T08:59:44;3.10;1.00
16154;DHT22;8182;55.648;13.208;2024-03-07T09:02:14;3.20;1.00
16154;DHT22;8182;55.648;13.208;2024-03-07T09:04:41;3.00;1.00
16154;DHT22;8182;55.648;13.208;2024-03-07T09:07:08;3.10;1.00
16154;DHT22;8182;55.648;13.208;2024-03-07T09:09:35;3.20;1.00
16154;DHT22;8182;55.648;13.208;2024-03-07T09:12:02;3.70;1.00
16154;DHT22;8182;55.648;13.208;2024-03-07T09:14:29;4.10;1.00
16154;DHT22;8182;55.648;13.208;2024-03-07T09:16:56;3.80;1.00
16154;DHT22;8182;55.648;13.208;2024-03-07T09:19:24;4.00;1.00
16154;DHT22;8182;55.648;13.208;2024-03-07T09:21:51;4.20;1.00
16154;DHT22;8182;55.648;13.208;2024-03-07T09:24:19;4.20;1.00
16154;DHT22;8182;55.648;13.208;2024-03-07T09:26:47;4.10;1.00
16154;DHT22;8182;55.648;13.208;2024-03-07T09:29:17;4.60;1.00
16154;DHT22;8182;55.648;13.208;2024-03-07T09:31:45;5.30;1.00
16154;DHT22;8182;55.648;13.208;2024-03-07T09:34:18;7.10;1.00
16154;DHT22;8182;55.648;13.208;2024-03-07T09:36:46;6.30;1.00
16154;DHT22;8182;55.648;13.208;2024-03-07T09:39:13;6.30;1.00
16154;DHT22;8182;55.648;13.208;2024-03-07T09:41:40;8.10;1.00
16154;DHT22;8182;55.648;13.208;2024-03-07T09:44:09;7.70;1.00
16154;DHT22;8182;55.648;13.208;2024-03-07T09:46:37;9.60;1.00
16154;DHT22;8182;55.648;13.208;2024-03-07T09:49:04;10.30;1.00
16154;DHT22;8182;55.648;13.208;2024-03-07T09:51:35;11.70;1.00
16154;DHT22;8182;55.648;13.208;2024-03-07T09:54:03;11.00;1.00
16154;DHT22;8182;55.648;13.208;2024-03-07T09:56:31;10.00;1.00
16154;DHT22;8182;55.648;13.208;2024-03-07T09:59:04;10.50;1.00
16154;DHT22;8182;55.648;13.208;2024-03-07T10:01:33;11.10;1.00
16154;DHT22;8182;55.648;13.208;2024-03-07T10:04:01;10.40;1.00
16154;DHT22;8182;55.648;13.208;2024-03-07T10:06:38;10.70;1.00
16154;DHT22;8182;55.648;13.208;2024-03-07T10:09:06;11.50;1.00
16154;DHT22;8182;55.648;13.208;2024-03-07T10:11:33;11.70;1.00
16154;DHT22;8182;55.648;13.208;2024-03-07T10:14:00;10.40;1.00
16154;DHT22;8182;55.648;13.208;2024-03-07T10:16:28;13.20;1.00
16154;DHT22;8182;55.648;13.208;2024-03-07T10:18:55;11.50;1.00
16154;DHT22;8182;55.648;13.208;2024-03-07T10:21:22;12.90;1.00
16154;DHT22;8182;55.648;13.208;2024-03-07T10:24:04;12.40;1.00
16154;DHT22;8182;55.648;13.208;2024-03-07T10:26:32;10.60;1.00
16154;DHT22;8182;55.648;13.208;2024-03-07T10:29:00;12.20;1.00
16154;DHT22;8182;55.648;13.208;2024-03-07T10:31:28;12.00;1.00
16154;DHT22;8182;55.648;13.208;2024-03-07T10:33:59;12.30;1.00
16154;DHT22;8182;55.648;13.208;2024-03-07T10:36:26;12.50;1.00
16154;DHT22;8182;55.648;13.208;2024-03-07T10:38:55;11.90;1.00
16154;DHT22;8182;55.648;13.208;2024-03-07T10:41:24;12.10;1.00
16154;DHT22;8182;55.648;13.208;2024-03-07T10:43:57;12.50;1.00
16154;DHT22;8182;55.648;13.208;2024-03-07T10:46:25;11.40;1.00
16154;DHT22;8182;55.648;13.208;2024-03-07T10:48:55;11.90;1.00
16154;DHT22;8182;55.648;13.208;2024-03-07T10:51:29;12.80;1.00
16154;DHT22;8182;55.648;13.208;2024-03-07T10:54:08;12.60;1.00
16154;DHT22;8182;55.648;13.208;2024-03-07T10:56:52;11.60;1.00
16154;DHT22;8182;55.648;13.208;2024-03-07T10:59:25;13.60;1.00
16154;DHT22;8182;55.648;13.208;2024-03-07T11:01:58;13.00;1.00
16154;DHT22;8182;55.648;13.208;2024-03-07T11:04:26;13.20;1.00
16154;DHT22;8182;55.648;13.208;2024-03-07T11:06:54;13.30;1.00
16154;DHT22;8182;55.648;13.208;2024-03-07T11:09:25;13.70;1.00
16154;DHT22;8182;55.648;13.208;2024-03-07T11:11:55;14.00;1.00
16154;DHT22;8182;55.648;13.208;2024-03-07T11:14:23;13.30;1.00
16154;DHT22;8182;55.648;13.208;2024-03-07T11:16:51;11.00;1.00
16154;DHT22;8182;55.648;13.208;2024-03-07T11:19:25;9.90;1.00
16154;DHT22;8182;55.648;13.208;2024-03-07T11:21:53;9.30;1.00
16154;DHT22;8182;55.648;13.208;2024-03-07T11:24:26;10.30;1.00
16154;DHT22;8182;55.648;13.208;2024-03-07T11:26:55;9.60;1.00
16154;DHT22;8182;55.648;13.208;2024-03-07T11:29:49;9.80;1.00
16154;DHT22;8182;55.648;13.208;2024-03-07T11:32:18;9.30;1.00
16154;DHT22;8182;55.648;13.208;2024-03-07T11:34:47;8.20;1.00
16154;DHT22;8182;55.648;13.208;2024-03-07T11:37:18;9.00;1.00
16154;DHT22;8182;55.648;13.208;2024-03-07T11:39:50;9.50;1.00
16154;DHT22;8182;55.648;13.208;2024-03-07T11:42:25;8.60;1.00
16154;DHT22;8182;55.648;13.208;2024-03-07T11:44:54;8.50;1.00
16154;DHT22;8182;55.648;13.208;2024-03-07T11:47:22;7.60;1.00
16154;DHT22;8182;55.648;13.208;2024-03-07T11:49:50;7.60;1.00
16154;DHT22;8182;55.648;13.208;2024-03-07T11:52:18;7.70;1.00
16154;DHT22;8182;55.648;13.208;2024-03-07T11:54:45;7.60;1.00
16154;DHT22;8182;55.648;13.208;2024-03-07T11:57:17;7.80;1.00
16154;DHT22;8182;55.648;13.208;2024-03-07T11:59:47;8.00;1.00
16154;DHT22;8182;55.648;13.208;2024-03-07T12:02:18;8.30;1.00
16154;DHT22;8182;55.648;13.208;2024-03-07T12:04:47;8.00;1.00
16154;DHT22;8182;55.648;13.208;2024-03-07T12:07:14;8.20;1.00
16154;DHT22;8182;55.648;13.208;2024-03-07T12:09:47;8.20;1.00
16154;DHT22;8182;55.648;13.208;2024-03-07T12:12:17;8.70;1.00
16154;DHT22;8182;55.648;13.208;2024-03-07T12:14:44;8.80;1.00
16154;DHT22;8182;55.648;13.208;2024-03-07T12:17:11;8.50;1.00
16154;DHT22;8182;55.648;13.208;2024-03-07T12:19:38;8.70;1.00
16154;DHT22;8182;55.648;13.208;2024-03-07T12:22:08;8.00;1.00
16154;DHT22;8182;55.648;13.208;2024-03-07T12:24:38;8.40;1.00
16154;DHT22;8182;55.648;13.208;2024-03-07T12:27:08;7.60;1.00
16154;DHT22;8182;55.648;13.208;2024-03-07T12:29:37;7.50;1.00
16154;DHT22;8182;55.648;13.208;2024-03-07T12:32:05;7.80;1.00
16154;DHT22;8182;55.648;13.208;2024-03-07T12:34:33;7.90;1.00
16154;DHT22;8182;55.648;13.208;2024-03-07T12:37:03;8.40;1.00
16154;DHT22;8182;55.648;13.208;2024-03-07T12:39:32;8.10;1.00
16154;DHT22;8182;55.648;13.208;2024-03-07T12:42:02;7.30;1.00
16154;DHT22;8182;55.648;13.208;2024-03-07T12:44:40;7.20;1.00
16154;DHT22;8182;55.648;13.208;2024-03-07T12:47:10;7.80;1.00
16154;DHT22;8182;55.648;13.208;2024-03-07T12:49:37;7.80;1.00
16154;DHT22;8182;55.648;13.208;2024-03-07T12:52:05;7.60;1.00
16154;DHT22;8182;55.648;13.208;2024-03-07T12:54:33;7.50;1.00
16154;DHT22;8182;55.648;13.208;2024-03-07T12:57:00;7.40;1.00
16154;DHT22;8182;55.648;13.208;2024-03-07T12:59:28;8.10;1.00
16154;DHT22;8182;55.648;13.208;2024-03-07T13:01:56;7.60;1.00
16154;DHT22;8182;55.648;13.208;2024-03-07T13:04:23;7.30;1.00
16154;DHT22;8182;55.648;13.208;2024-03-07T13:06:52;7.10;1.00
16154;DHT22;8182;55.648;13.208;2024-03-07T13:09:19;7.70;1.00
16154;DHT22;8182;55.648;13.208;2024-03-07T13:11:53;7.80;1.00
16154;DHT22;8182;55.648;13.208;2024-03-07T13:14:20;8.00;1.00
16154;DHT22;8182;55.648;13.208;2024-03-07T13:16:47;7.50;1.00
16154;DHT22;8182;55.648;13.208;2024-03-07T13:19:15;7.30;1.00
16154;DHT22;8182;55.648;13.208;2024-03-07T13:21:46;7.20;1.00
16154;DHT22;8182;55.648;13.208;2024-03-07T13:24:14;7.30;1.00
16154;DHT22;8182;55.648;13.208;2024-03-07T13:26:42;6.80;1.00
16154;DHT22;8182;55.648;13.208;2024-03-07T13:29:10;7.30;1.00
16154;DHT22;8182;55.648;13.208;2024-03-07T13:31:39;7.20;1.00
16154;DHT22;8182;55.648;13.208;2024-03-07T13:34:08;7.40;1.00
16154;DHT22;8182;55.648;13.208;2024-03-07T13:36:40;7.00;1.00
16154;DHT22;8182;55.648;13.208;2024-03-07T13:39:07;7.20;1.00
16154;DHT22;8182;55.648;13.208;2024-03-07T13:41:36;7.30;1.00
16154;DHT22;8182;55.648;13.208;2024-03-07T13:44:04;7.40;1.00
16154;DHT22;8182;55.648;13.208;2024-03-07T13:46:31;7.20;1.00
16154;DHT22;8182;55.648;13.208;2024-03-07T13:48:58;7.00;1.00
16154;DHT22;8182;55.648;13.208;2024-03-07T13:51:33;7.10;1.00
16154;DHT22;8182;55.648;13.208;2024-03-07T13:54:02;7.10;1.00
16154;DHT22;8182;55.648;13.208;2024-03-07T13:56:56;7.10;1.00
16154;DHT22;8182;55.648;13.208;2024-03-07T14:00:05;7.30;1.00
16154;DHT22;8182;55.648;13.208;2024-03-07T14:03:22;7.10;1.00
16154;DHT22;8182;55.648;13.208;2024-03-07T14:05:59;7.10;1.00
16154;DHT22;8182;55.648;13.208;2024-03-07T14:09:13;7.10;1.00
16154;DHT22;8182;55.648;13.208;2024-03-07T14:15:29;7.10;1.00
16154;DHT22;8182;55.648;13.208;2024-03-07T14:18:33;7.40;1.00
16154;DHT22;8182;55.648;13.208;2024-03-07T14:21:23;7.10;1.00
16154;DHT22;8182;55.648;13.208;2024-03-07T14:24:20;7.20;1.00
16154;DHT22;8182;55.648;13.208;2024-03-07T14:27:18;7.30;1.00
16154;DHT22;8182;55.648;13.208;2024-03-07T14:29:52;7.20;1.00
16154;DHT22;8182;55.648;13.208;2024-03-07T14:32:22;7.30;1.00
16154;DHT22;8182;55.648;13.208;2024-03-07T14:34:57;7.10;1.00
16154;DHT22;8182;55.648;13.208;2024-03-07T14:37:27;7.20;1.00
16154;DHT22;8182;55.648;13.208;2024-03-07T14:40:10;7.20;1.00
16154;DHT22;8182;55.648;13.208;2024-03-07T14:42:42;7.40;1.00
16154;DHT22;8182;55.648;13.208;2024-03-07T14:45:13;7.20;1.00
16154;DHT22;8182;55.648;13.208;2024-03-07T14:47:43;7.00;1.00
16154;DHT22;8182;55.648;13.208;2024-03-07T14:50:11;7.00;1.00
16154;DHT22;8182;55.648;13.208;2024-03-07T14:52:42;6.90;1.00
16154;DHT22;8182;55.648;13.208;2024-03-07T14:55:12;6.90;1.00
16154;DHT22;8182;55.648;13.208;2024-03-07T14:57:45;7.20;1.00
16154;DHT22;8182;55.648;13.208;2024-03-07T15:00:13;7.00;1.00
16154;DHT22;8182;55.648;13.208;2024-03-07T15:02:46;7.00;1.00
16154;DHT22;8182;55.648;13.208;2024-03-07T15:05:13;7.50;1.00
16154;DHT22;8182;55.648;13.208;2024-03-07T15:07:45;6.90;1.00
16154;DHT22;8182;55.648;13.208;2024-03-07T15:10:18;6.70;1.00
16154;DHT22;8182;55.648;13.208;2024-03-07T15:12:46;6.80;1.00
16154;DHT22;8182;55.648;13.208;2024-03-07T15:15:13;6.80;1.00
16154;DHT22;8182;55.648;13.208;2024-03-07T15:17:40;6.80;1.00
16154;DHT22;8182;55.648;13.208;2024-03-07T15:20:08;6.70;1.00
16154;DHT22;8182;55.648;13.208;2024-03-07T15:22:41;6.70;1.00
16154;DHT22;8182;55.648;13.208;2024-03-07T15:25:12;6.70;1.00
16154;DHT22;8182;55.648;13.208;2024-03-07T15:27:40;6.60;1.00
16154;DHT22;8182;55.648;13.208;2024-03-07T15:30:08;6.60;1.00
16154;DHT22;8182;55.648;13.208;2024-03-07T15:32:40;6.50;1.00
16154;DHT22;8182;55.648;13.208;2024-03-07T15:35:07;6.60;1.00
16154;DHT22;8182;55.648;13.208;2024-03-07T15:37:38;6.50;1.00
16154;DHT22;8182;55.648;13.208;2024-03-07T15:40:06;6.50;1.00
16154;DHT22;8182;55.648;13.208;2024-03-07T15:42:37;6.50;1.00
16154;DHT22;8182;55.648;13.208;2024-03-07T15:45:07;6.50;1.00
16154;DHT22;8182;55.648;13.208;2024-03-07T15:47:42;6.50;1.00
16154;DHT22;8182;55.648;13.208;2024-03-07T15:50:09;6.50;1.00
16154;DHT22;8182;55.648;13.208;2024-03-07T15:52:38;6.40;1.00
16154;DHT22;8182;55.648;13.208;2024-03-07T15:55:07;6.30;1.00
16154;DHT22;8182;55.648;13.208;2024-03-07T15:57:41;6.20;1.00
16154;DHT22;8182;55.648;13.208;2024-03-07T16:00:12;6.30;1.00
16154;DHT22;8182;55.648;13.208;2024-03-07T16:02:49;6.30;1.00
16154;DHT22;8182;55.648;13.208;2024-03-07T16:05:16;6.20;1.00
16154;DHT22;8182;55.648;13.208;2024-03-07T16:07:43;6.00;1.00
16154;DHT22;8182;55.648;13.208;2024-03-07T16:10:11;5.90;1.00
16154;DHT22;8182;55.648;13.208;2024-03-07T16:12:39;5.90;1.00
16154;DHT22;8182;55.648;13.208;2024-03-07T16:15:06;5.90;1.00
16154;DHT22;8182;55.648;13.208;2024-03-07T16:17:36;5.80;1.00